createdAt,value
2022-12-06T00:00:42.465Z,25
2022-12-06T00:01:42.465Z,23
2022-12-06T00:02:42.452Z,21
2022-12-06T00:03:42.452Z,19
2022-12-06T00:04:42.466Z,23
2022-12-06T00:05:42.466Z,16
2022-12-06T00:06:42.453Z,20
2022-12-06T00:07:42.453Z,16
2022-12-06T00:08:42.466Z,17
2022-12-06T00:09:42.530Z,16
2022-12-06T00:10:42.453Z,15
2022-12-06T00:11:42.466Z,17
2022-12-06T00:12:42.467Z,15
2022-12-06T00:13:42.467Z,15
2022-12-06T00:14:42.454Z,15
2022-12-06T00:15:42.467Z,13
2022-12-06T00:16:42.467Z,12
2022-12-06T00:17:50.425Z,17
2022-12-06T00:18:42.454Z,14
2022-12-06T00:19:42.467Z,15
2022-12-06T00:20:42.468Z,17
2022-12-06T00:21:42.468Z,14
2022-12-06T00:22:42.455Z,15
2022-12-06T00:23:42.468Z,14
2022-12-06T00:24:42.469Z,16
2022-12-06T00:25:42.468Z,16
2022-12-06T00:26:42.455Z,15
2022-12-06T00:27:42.469Z,15
2022-12-06T00:28:42.469Z,17
2022-12-06T00:29:42.456Z,18
2022-12-06T00:30:42.456Z,19
2022-12-06T00:31:42.469Z,18
2022-12-06T00:32:42.470Z,16
2022-12-06T00:33:42.456Z,16
2022-12-06T00:34:42.456Z,15
2022-12-06T00:35:42.470Z,15
2022-12-06T00:36:42.470Z,14
2022-12-06T00:37:42.457Z,13
2022-12-06T00:38:42.470Z,12
2022-12-06T00:39:42.470Z,12
2022-12-06T00:40:42.470Z,12
2022-12-06T00:41:42.457Z,11
2022-12-06T00:42:42.470Z,12
2022-12-06T00:43:42.471Z,11
2022-12-06T00:44:42.471Z,12
2022-12-06T00:45:42.458Z,10
2022-12-06T00:46:42.471Z,10
2022-12-06T00:47:42.514Z,10
2022-12-06T00:48:42.472Z,13
2022-12-06T00:49:42.458Z,11
2022-12-06T00:50:42.472Z,11
2022-12-06T00:51:42.472Z,13
2022-12-06T00:52:42.472Z,16
2022-12-06T00:53:42.459Z,13
2022-12-06T00:54:42.472Z,13
2022-12-06T00:55:42.473Z,12
2022-12-06T00:56:42.459Z,14
2022-12-06T00:57:42.460Z,12
2022-12-06T00:58:42.473Z,14
2022-12-06T00:59:42.473Z,16
2022-12-06T01:00:42.460Z,17
2022-12-06T01:01:42.460Z,18
2022-12-06T01:02:42.473Z,17
2022-12-06T01:03:42.473Z,18
2022-12-06T01:04:50.431Z,16
2022-12-06T01:05:42.474Z,19
2022-12-06T01:06:42.474Z,14
2022-12-06T01:07:42.474Z,17
2022-12-06T01:08:42.461Z,16
2022-12-06T01:09:42.474Z,17
2022-12-06T01:10:42.474Z,17
2022-12-06T01:11:42.474Z,16
2022-12-06T01:12:42.462Z,15
2022-12-06T01:13:42.475Z,17
2022-12-06T01:14:42.475Z,19
2022-12-06T01:15:42.475Z,20
2022-12-06T01:16:42.462Z,17
2022-12-06T01:17:42.475Z,19
2022-12-06T01:18:42.476Z,20
2022-12-06T01:19:42.463Z,15
2022-12-06T01:20:42.463Z,17
2022-12-06T01:21:42.476Z,17
2022-12-06T01:22:42.476Z,15
2022-12-06T01:23:42.463Z,17
2022-12-06T01:24:42.463Z,16
2022-12-06T01:25:42.476Z,19
2022-12-06T01:26:42.477Z,18
2022-12-06T01:28:02.394Z,18
2022-12-06T01:28:42.464Z,17
2022-12-06T01:29:42.477Z,16
2022-12-06T01:30:42.485Z,16
2022-12-06T01:31:42.464Z,16
2022-12-06T01:32:42.517Z,17
2022-12-06T01:33:42.477Z,20
2022-12-06T01:34:42.478Z,17
2022-12-06T01:35:42.465Z,17
2022-12-06T01:36:42.478Z,17
2022-12-06T01:37:42.478Z,17
2022-12-06T01:38:42.478Z,16
2022-12-06T01:39:42.465Z,14
2022-12-06T01:40:42.479Z,14
2022-12-06T01:41:42.479Z,12
2022-12-06T01:42:42.479Z,12
2022-12-06T01:43:42.466Z,12
2022-12-06T01:45:42.480Z,12
2022-12-06T01:46:42.479Z,11
2022-12-06T01:47:42.466Z,10
2022-12-06T01:48:42.479Z,9
2022-12-06T01:49:42.480Z,9
2022-12-06T01:50:42.467Z,9
2022-12-06T01:51:42.467Z,9
2022-12-06T01:52:42.480Z,8
2022-12-06T01:53:42.481Z,10
2022-12-06T01:54:42.467Z,12
2022-12-06T01:55:42.467Z,11
2022-12-06T01:56:42.481Z,13
2022-12-06T01:57:42.481Z,12
2022-12-06T01:58:42.468Z,12
2022-12-06T01:59:42.481Z,13
2022-12-06T02:00:42.481Z,14
2022-12-06T02:01:42.481Z,14
2022-12-06T02:02:42.468Z,14
2022-12-06T02:03:42.481Z,13
2022-12-06T02:04:42.484Z,15
2022-12-06T02:05:42.482Z,13
2022-12-06T02:06:42.469Z,13
2022-12-06T02:07:42.482Z,13
2022-12-06T02:08:42.483Z,14
2022-12-06T02:09:42.482Z,15
2022-12-06T02:10:42.469Z,16
2022-12-06T02:11:42.483Z,18
2022-12-06T02:12:42.483Z,17
2022-12-06T02:13:42.483Z,16
2022-12-06T02:14:42.470Z,19
2022-12-06T02:15:42.483Z,17
2022-12-06T02:16:42.484Z,17
2022-12-06T02:17:42.470Z,10
2022-12-06T02:18:42.471Z,13
2022-12-06T02:19:42.484Z,12
2022-12-06T02:20:42.484Z,12
2022-12-06T02:21:42.471Z,13
2022-12-06T02:22:42.471Z,13
2022-12-06T02:23:42.484Z,15
2022-12-06T02:24:42.485Z,17
2022-12-06T02:25:42.471Z,17
2022-12-06T02:26:42.485Z,20
2022-12-06T02:27:51.682Z,19
2022-12-06T02:28:42.485Z,18
2022-12-06T02:29:42.472Z,19
2022-12-06T02:30:42.485Z,21
2022-12-06T02:31:42.485Z,19
2022-12-06T02:32:42.485Z,18
2022-12-06T02:33:42.473Z,21
2022-12-06T02:34:42.486Z,21
2022-12-06T02:35:42.486Z,18
2022-12-06T02:36:42.486Z,18
2022-12-06T02:37:57.887Z,20
2022-12-06T02:38:42.486Z,20
2022-12-06T02:39:42.487Z,20
2022-12-06T02:40:42.487Z,19
2022-12-06T02:41:42.474Z,20
2022-12-06T02:42:42.487Z,18
2022-12-06T02:43:42.487Z,17
2022-12-06T02:44:42.474Z,19
2022-12-06T02:45:42.474Z,22
2022-12-06T02:46:42.487Z,19
2022-12-06T02:47:50.465Z,20
2022-12-06T02:48:42.475Z,18
2022-12-06T02:49:42.475Z,15
2022-12-06T02:50:42.488Z,16
2022-12-06T02:51:42.488Z,17
2022-12-06T02:52:42.475Z,17
2022-12-06T02:53:42.475Z,16
2022-12-06T02:54:42.488Z,19
2022-12-06T02:55:42.488Z,20
2022-12-06T02:56:42.476Z,20
2022-12-06T02:57:42.489Z,19
2022-12-06T02:58:42.489Z,19
2022-12-06T02:59:42.489Z,14
2022-12-06T03:00:42.476Z,19
2022-12-06T03:01:42.489Z,17
2022-12-06T03:02:42.515Z,16
2022-12-06T03:03:42.489Z,13
2022-12-06T03:04:42.477Z,16
2022-12-06T03:05:42.490Z,13
2022-12-06T03:06:42.490Z,13
2022-12-06T03:07:42.490Z,13
2022-12-06T03:08:50.447Z,14
2022-12-06T03:09:42.490Z,15
2022-12-06T03:10:42.491Z,13
2022-12-06T03:11:42.491Z,15
2022-12-06T03:12:42.478Z,15
2022-12-06T03:13:42.555Z,14
2022-12-06T03:14:42.491Z,16
2022-12-06T03:15:42.478Z,17
2022-12-06T03:16:42.478Z,14
2022-12-06T03:17:42.492Z,12
2022-12-06T03:18:42.492Z,10
2022-12-06T03:19:42.479Z,13
2022-12-06T03:20:42.479Z,12
2022-12-06T03:21:42.492Z,15
2022-12-06T03:22:42.516Z,15
2022-12-06T03:23:42.479Z,15
2022-12-06T03:24:42.492Z,13
2022-12-06T03:25:42.493Z,14
2022-12-06T03:26:42.492Z,13
2022-12-06T03:27:42.480Z,11
2022-12-06T03:28:42.493Z,14
2022-12-06T03:29:42.493Z,12
2022-12-06T03:30:42.493Z,13
2022-12-06T03:31:42.480Z,9
2022-12-06T03:32:42.493Z,12
2022-12-06T03:33:42.494Z,12
2022-12-06T03:35:42.481Z,11
2022-12-06T03:36:42.494Z,11
2022-12-06T03:37:42.495Z,11
2022-12-06T03:39:08.979Z,12
2022-12-06T03:40:02.507Z,11
2022-12-06T03:41:12.515Z,10
2022-12-06T03:42:22.522Z,11
2022-12-06T03:43:32.528Z,8
2022-12-06T03:44:59.012Z,8
2022-12-06T03:45:52.540Z,10
2022-12-06T03:47:00.500Z,15
2022-12-06T03:47:42.482Z,13
2022-12-06T03:48:42.496Z,13
2022-12-06T03:49:42.496Z,12
2022-12-06T03:50:42.496Z,14
2022-12-06T03:51:42.483Z,16
2022-12-06T03:52:42.496Z,15
2022-12-06T03:53:42.497Z,12
2022-12-06T03:54:42.496Z,15
2022-12-06T03:55:42.483Z,16
2022-12-06T03:56:42.497Z,15
2022-12-06T03:57:42.497Z,15
2022-12-06T03:58:42.497Z,13
2022-12-06T03:59:42.484Z,13
2022-12-06T04:00:42.497Z,14
2022-12-06T04:01:42.498Z,15
2022-12-06T04:02:42.484Z,16
2022-12-06T04:03:42.484Z,17
2022-12-06T04:04:42.498Z,18
2022-12-06T04:05:42.498Z,15
2022-12-06T04:06:42.485Z,15
2022-12-06T04:07:42.485Z,16
2022-12-06T04:08:48.396Z,12
2022-12-06T04:09:42.499Z,15
2022-12-06T04:10:42.485Z,13
2022-12-06T04:11:42.486Z,15
2022-12-06T04:12:42.499Z,13
2022-12-06T04:13:42.499Z,14
2022-12-06T04:14:42.486Z,17
2022-12-06T04:15:42.499Z,12
2022-12-06T04:16:42.499Z,12
2022-12-06T04:17:42.499Z,11
2022-12-06T04:18:42.487Z,18
2022-12-06T04:19:42.500Z,17
2022-12-06T04:20:42.500Z,18
2022-12-06T04:21:42.500Z,17
2022-12-06T04:22:42.500Z,15
2022-12-06T04:23:42.500Z,18
2022-12-06T04:24:42.501Z,14
2022-12-06T04:25:42.500Z,14
2022-12-06T04:26:42.487Z,14
2022-12-06T04:27:42.501Z,14
2022-12-06T04:28:50.458Z,15
2022-12-06T04:29:42.501Z,13
2022-12-06T04:30:42.488Z,16
2022-12-06T04:31:42.501Z,17
2022-12-06T04:32:42.502Z,17
2022-12-06T04:33:42.488Z,14
2022-12-06T04:34:42.488Z,16
2022-12-06T04:37:42.489Z,11
2022-12-06T04:38:56.663Z,10
2022-12-06T04:39:48.144Z,13
2022-12-06T04:40:42.503Z,14
2022-12-06T04:41:42.489Z,11
2022-12-06T04:42:50.447Z,13
2022-12-06T04:43:42.503Z,13
2022-12-06T04:44:42.503Z,19
2022-12-06T04:45:42.490Z,15
2022-12-06T04:46:42.490Z,15
2022-12-06T04:47:42.503Z,14
2022-12-06T04:48:42.504Z,17
2022-12-06T04:49:42.490Z,14
2022-12-06T04:50:42.528Z,16
2022-12-06T04:51:42.504Z,15
2022-12-06T04:52:42.504Z,15
2022-12-06T04:53:42.491Z,14
2022-12-06T04:54:42.504Z,16
2022-12-06T04:55:42.504Z,15
2022-12-06T04:56:42.504Z,15
2022-12-06T04:57:42.491Z,16
2022-12-06T04:58:42.504Z,16
2022-12-06T04:59:42.505Z,17
2022-12-06T05:00:50.464Z,20
2022-12-06T05:01:42.492Z,18
2022-12-06T05:03:42.505Z,17
2022-12-06T05:04:42.505Z,15
2022-12-06T05:05:42.492Z,18
2022-12-06T05:06:42.505Z,14
2022-12-06T05:07:42.506Z,19
2022-12-06T05:08:42.506Z,18
2022-12-06T05:09:42.493Z,19
2022-12-06T05:10:42.506Z,14
2022-12-06T05:11:42.507Z,18
2022-12-06T05:12:42.506Z,14
2022-12-06T05:13:42.493Z,16
2022-12-06T05:14:42.546Z,16
2022-12-06T05:15:42.507Z,18
2022-12-06T05:16:42.494Z,15
2022-12-06T05:18:42.507Z,14
2022-12-06T05:19:50.466Z,16
2022-12-06T05:20:42.494Z,17
2022-12-06T05:21:42.494Z,17
2022-12-06T05:22:42.507Z,18
2022-12-06T05:23:42.508Z,18
2022-12-06T05:24:42.495Z,18
2022-12-06T05:25:42.495Z,13
2022-12-06T05:26:52.501Z,15
2022-12-06T05:28:00.460Z,16
2022-12-06T05:29:10.466Z,17
2022-12-06T05:30:20.472Z,17
2022-12-06T05:31:30.479Z,18
2022-12-06T05:32:40.488Z,14
2022-12-06T05:33:50.495Z,16
2022-12-06T05:34:58.454Z,16
2022-12-06T05:35:49.934Z,18
2022-12-06T05:36:41.416Z,17
2022-12-06T05:37:16.420Z,16
2022-12-06T05:37:51.423Z,16
2022-12-06T05:38:42.510Z,18
2022-12-06T05:39:42.510Z,15
2022-12-06T05:40:42.510Z,14
2022-12-06T05:41:42.497Z,14
2022-12-06T05:42:42.510Z,18
2022-12-06T05:43:42.511Z,12
2022-12-06T05:44:42.510Z,16
2022-12-06T05:45:50.468Z,18
2022-12-06T05:46:42.511Z,18
2022-12-06T05:47:42.511Z,15
2022-12-06T05:48:42.511Z,19
2022-12-06T05:49:42.498Z,18
2022-12-06T05:50:42.511Z,18
2022-12-06T05:51:42.512Z,19
2022-12-06T05:52:42.498Z,17
2022-12-06T05:53:50.456Z,19
2022-12-06T05:54:42.512Z,18
2022-12-06T05:55:42.512Z,21
2022-12-06T05:56:42.499Z,19
2022-12-06T05:57:42.499Z,19
2022-12-06T05:58:42.512Z,22
2022-12-06T05:59:42.513Z,25
2022-12-06T06:00:42.499Z,16
2022-12-06T06:01:42.499Z,19
2022-12-06T06:02:42.513Z,25
2022-12-06T06:03:42.513Z,28
2022-12-06T06:04:42.500Z,22
2022-12-06T06:07:42.513Z,17
2022-12-06T06:08:42.500Z,19
2022-12-06T06:09:50.458Z,21
2022-12-06T06:10:42.514Z,23
2022-12-06T06:11:42.514Z,31
2022-12-06T06:12:42.501Z,26
2022-12-06T06:13:42.514Z,26
2022-12-06T06:14:42.514Z,26
2022-12-06T06:15:42.514Z,29
2022-12-06T06:16:42.514Z,32
2022-12-06T06:17:42.515Z,32
2022-12-06T06:18:42.515Z,41
2022-12-06T06:19:56.189Z,31
2022-12-06T06:20:42.502Z,31
2022-12-06T06:21:42.515Z,32
2022-12-06T06:22:42.516Z,32
2022-12-06T06:23:42.515Z,28
2022-12-06T06:24:50.473Z,31
2022-12-06T06:25:42.516Z,29
2022-12-06T06:26:42.517Z,31
2022-12-06T06:27:42.503Z,27
2022-12-06T06:28:50.463Z,27
2022-12-06T06:29:42.516Z,26
2022-12-06T06:30:42.517Z,28
2022-12-06T06:31:50.475Z,27
2022-12-06T06:32:42.503Z,35
2022-12-06T06:33:42.517Z,30
2022-12-06T06:34:42.517Z,30
2022-12-06T06:35:42.504Z,32
2022-12-06T06:36:50.460Z,28
2022-12-06T06:37:42.517Z,30
2022-12-06T06:38:42.518Z,35
2022-12-06T06:39:42.504Z,31
2022-12-06T06:40:50.461Z,26
2022-12-06T06:41:42.518Z,27
2022-12-06T06:42:42.518Z,26
2022-12-06T06:43:50.475Z,31
2022-12-06T06:44:42.505Z,30
2022-12-06T06:45:42.518Z,32
2022-12-06T06:47:42.505Z,35
2022-12-06T06:48:50.463Z,31
2022-12-06T06:49:42.519Z,36
2022-12-06T06:50:42.519Z,29
2022-12-06T06:52:42.506Z,19
2022-12-06T06:53:42.519Z,19
2022-12-06T06:54:50.476Z,23
2022-12-06T06:55:42.506Z,25
2022-12-06T06:56:42.520Z,21
2022-12-06T06:57:42.520Z,28
2022-12-06T06:58:42.520Z,29
2022-12-06T06:59:42.507Z,20
2022-12-06T07:00:42.520Z,30
2022-12-06T07:01:42.520Z,23
2022-12-06T07:02:42.521Z,37
2022-12-06T07:03:42.507Z,40
2022-12-06T07:04:42.521Z,38
2022-12-06T07:05:42.521Z,32
2022-12-06T07:06:42.521Z,27
2022-12-06T07:07:42.508Z,34
2022-12-06T07:08:42.521Z,28
2022-12-06T07:09:42.522Z,19
2022-12-06T07:10:42.508Z,22
2022-12-06T07:11:42.508Z,34
2022-12-06T07:12:42.522Z,34
2022-12-06T07:13:42.522Z,28
2022-12-06T07:14:42.509Z,27
2022-12-06T07:15:42.509Z,40
2022-12-06T07:16:42.522Z,21
2022-12-06T07:17:42.522Z,30
2022-12-06T07:18:42.509Z,27
2022-12-06T07:20:02.159Z,25
2022-12-06T07:20:42.523Z,19
2022-12-06T07:21:42.523Z,21
2022-12-06T07:22:42.510Z,19
2022-12-06T07:23:42.523Z,25
2022-12-06T07:24:42.523Z,23
2022-12-06T07:25:42.523Z,24
2022-12-06T07:26:42.510Z,22
2022-12-06T07:27:42.524Z,22
2022-12-06T07:28:42.524Z,31
2022-12-06T07:29:42.524Z,35
2022-12-06T07:30:42.511Z,37
2022-12-06T07:31:42.588Z,31
2022-12-06T07:32:42.525Z,27
2022-12-06T07:33:42.511Z,32
2022-12-06T07:34:42.511Z,29
2022-12-06T07:35:42.525Z,22
2022-12-06T07:36:42.525Z,29
2022-12-06T07:37:42.512Z,31
2022-12-06T07:38:42.590Z,38
2022-12-06T07:39:42.525Z,26
2022-12-06T07:41:42.512Z,23
2022-12-06T07:42:42.526Z,29
2022-12-06T07:43:42.526Z,34
2022-12-06T07:44:42.526Z,33
2022-12-06T07:45:42.513Z,38
2022-12-06T07:46:42.526Z,31
2022-12-06T07:47:42.527Z,30
2022-12-06T07:48:42.526Z,28
2022-12-06T07:49:42.513Z,29
2022-12-06T07:50:42.527Z,29
2022-12-06T07:51:42.527Z,31
2022-12-06T07:53:42.514Z,31
2022-12-06T07:54:42.527Z,31
2022-12-06T07:55:42.528Z,38
2022-12-06T07:56:42.514Z,38
2022-12-06T07:57:42.514Z,38
2022-12-06T07:58:42.528Z,36
2022-12-06T07:59:42.528Z,29
2022-12-06T08:00:42.515Z,34
2022-12-06T08:01:42.528Z,26
2022-12-06T08:02:42.528Z,29
2022-12-06T08:03:42.528Z,26
2022-12-06T08:04:42.515Z,38
2022-12-06T08:05:42.528Z,36
2022-12-06T08:06:42.529Z,38
2022-12-06T08:07:42.529Z,32
2022-12-06T08:08:42.516Z,25
2022-12-06T08:09:42.529Z,34
2022-12-06T08:10:42.530Z,31
2022-12-06T08:11:42.529Z,35
2022-12-06T08:13:42.530Z,33
2022-12-06T08:14:42.530Z,39
2022-12-06T08:15:42.517Z,36
2022-12-06T08:16:42.517Z,37
2022-12-06T08:17:42.530Z,31
2022-12-06T08:18:42.531Z,32
2022-12-06T08:20:08.163Z,23
2022-12-06T08:20:43.165Z,31
2022-12-06T08:21:42.531Z,28
2022-12-06T08:22:42.531Z,33
2022-12-06T08:23:42.518Z,40
2022-12-06T08:25:42.531Z,25
2022-12-06T08:26:42.531Z,25
2022-12-06T08:27:42.518Z,32
2022-12-06T08:28:42.532Z,29
2022-12-06T08:29:42.532Z,35
2022-12-06T08:30:42.532Z,29
2022-12-06T08:31:42.519Z,33
2022-12-06T08:32:42.532Z,29
2022-12-06T08:33:42.533Z,25
2022-12-06T08:34:42.519Z,28
2022-12-06T08:35:42.519Z,29
2022-12-06T08:36:42.533Z,33
2022-12-06T08:37:42.533Z,36
2022-12-06T08:38:42.520Z,37
2022-12-06T08:39:42.520Z,44
2022-12-06T08:40:42.533Z,36
2022-12-06T08:41:42.533Z,36
2022-12-06T08:42:42.520Z,34
2022-12-06T08:43:42.534Z,47
2022-12-06T08:44:42.534Z,49
2022-12-06T08:45:42.534Z,61
2022-12-06T08:46:42.521Z,51
2022-12-06T08:47:42.534Z,44
2022-12-06T08:48:42.577Z,46
2022-12-06T08:49:42.534Z,45
2022-12-06T08:50:42.521Z,37
2022-12-06T08:51:42.535Z,42
2022-12-06T08:52:42.535Z,35
2022-12-06T08:53:42.535Z,29
2022-12-06T08:54:50.492Z,31
2022-12-06T08:56:00.499Z,36
2022-12-06T08:57:10.504Z,41
2022-12-06T08:58:18.462Z,35
2022-12-06T08:59:28.467Z,44
2022-12-06T09:00:38.473Z,45
2022-12-06T09:01:48.481Z,43
2022-12-06T09:02:58.487Z,42
2022-12-06T09:04:24.971Z,46
2022-12-06T09:05:18.502Z,47
2022-12-06T09:06:28.509Z,48
2022-12-06T09:07:38.515Z,47
2022-12-06T09:08:46.474Z,41
2022-12-06T09:09:21.476Z,46
2022-12-06T09:09:56.479Z,49
2022-12-06T09:10:31.482Z,36
2022-12-06T09:11:06.485Z,43
2022-12-06T09:11:42.524Z,46
2022-12-06T09:12:50.482Z,51
2022-12-06T09:13:42.540Z,48
2022-12-06T09:14:42.537Z,40
2022-12-06T09:15:42.525Z,51
2022-12-06T09:16:42.538Z,39
2022-12-06T09:17:50.495Z,39
2022-12-06T09:18:42.538Z,38
2022-12-06T09:19:57.679Z,46
2022-12-06T09:21:22.113Z,55
2022-12-06T09:21:57.116Z,51
2022-12-06T09:22:42.539Z,56
2022-12-06T09:23:42.526Z,47
2022-12-06T09:24:42.539Z,38
2022-12-06T09:25:42.539Z,35
2022-12-06T09:26:42.539Z,37
2022-12-06T09:27:42.526Z,36
2022-12-06T09:28:42.604Z,39
2022-12-06T09:29:42.540Z,47
2022-12-06T09:30:42.527Z,46
2022-12-06T09:31:42.527Z,42
2022-12-06T09:32:42.540Z,41
2022-12-06T09:33:42.540Z,40
2022-12-06T09:34:50.497Z,39
2022-12-06T09:35:42.527Z,41
2022-12-06T09:36:42.540Z,41
2022-12-06T09:37:42.541Z,43
2022-12-06T09:38:42.528Z,41
2022-12-06T09:39:42.528Z,39
2022-12-06T09:40:42.541Z,42
2022-12-06T09:41:42.541Z,47
2022-12-06T09:42:42.528Z,50
2022-12-06T09:43:42.541Z,52
2022-12-06T09:44:42.542Z,56
2022-12-06T09:45:42.541Z,63
2022-12-06T09:46:42.541Z,51
2022-12-06T09:47:42.542Z,44
2022-12-06T09:48:42.542Z,41
2022-12-06T09:49:42.542Z,40
2022-12-06T09:50:42.529Z,46
2022-12-06T09:51:42.542Z,48
2022-12-06T09:52:42.543Z,50
2022-12-06T09:53:42.530Z,54
2022-12-06T09:54:42.530Z,52
2022-12-06T09:55:42.543Z,51
2022-12-06T09:56:42.544Z,53
2022-12-06T09:57:42.530Z,44
2022-12-06T09:58:42.530Z,48
2022-12-06T09:59:42.543Z,41
2022-12-06T10:00:42.552Z,47
2022-12-06T10:01:42.531Z,48
2022-12-06T10:02:42.544Z,55
2022-12-06T10:03:42.544Z,45
2022-12-06T10:04:42.544Z,54
2022-12-06T10:05:42.531Z,59
2022-12-06T10:06:42.545Z,46
2022-12-06T10:07:42.545Z,50
2022-12-06T10:08:42.545Z,60
2022-12-06T10:09:42.532Z,63
2022-12-06T10:10:42.545Z,58
2022-12-06T10:11:42.546Z,60
2022-12-06T10:12:42.545Z,64
2022-12-06T10:13:42.532Z,65
2022-12-06T10:14:42.546Z,67
2022-12-06T10:15:42.546Z,74
2022-12-06T10:16:42.533Z,60
2022-12-06T10:17:42.533Z,55
2022-12-06T10:18:42.546Z,52
2022-12-06T10:19:42.547Z,65
2022-12-06T10:20:42.533Z,60
2022-12-06T10:21:42.534Z,53
2022-12-06T10:22:42.547Z,66
2022-12-06T10:23:42.547Z,61
2022-12-06T10:24:42.534Z,62
2022-12-06T10:26:42.547Z,52
2022-12-06T10:27:42.547Z,47
2022-12-06T10:28:42.535Z,41
2022-12-06T10:29:42.548Z,51
2022-12-06T10:30:50.507Z,57
2022-12-06T10:31:58.466Z,56
2022-12-06T10:33:08.471Z,48
2022-12-06T10:34:16.429Z,44
2022-12-06T10:35:24.387Z,47
2022-12-06T10:36:34.395Z,44
2022-12-06T10:37:44.400Z,46
2022-12-06T10:38:54.406Z,52
2022-12-06T10:40:02.365Z,48
2022-12-06T10:41:12.370Z,43
2022-12-06T10:42:22.378Z,59
2022-12-06T10:43:32.385Z,60
2022-12-06T10:44:40.343Z,53
2022-12-06T10:45:50.349Z,56
2022-12-06T10:47:00.358Z,59
2022-12-06T10:48:10.362Z,50
2022-12-06T10:49:20.369Z,43
2022-12-06T10:50:28.348Z,55
2022-12-06T10:51:38.334Z,53
2022-12-06T10:53:21.297Z,55
2022-12-06T10:54:29.255Z,54
2022-12-06T10:55:37.212Z,52
2022-12-06T10:56:45.170Z,57
2022-12-06T10:57:55.176Z,51
2022-12-06T10:59:05.182Z,54
2022-12-06T11:00:15.191Z,52
2022-12-06T11:01:25.197Z,56
2022-12-06T11:02:35.203Z,50
2022-12-06T11:03:26.685Z,55
2022-12-06T11:04:18.165Z,52
2022-12-06T11:04:53.169Z,43
2022-12-06T11:06:01.126Z,55
2022-12-06T11:06:52.606Z,53
2022-12-06T11:07:44.085Z,42
2022-12-06T11:08:35.566Z,53
2022-12-06T11:09:10.570Z,65
2022-12-06T11:09:45.572Z,67
2022-12-06T11:10:20.574Z,56
2022-12-06T11:10:55.577Z,60
2022-12-06T11:11:30.580Z,66
2022-12-06T11:12:05.584Z,61
2022-12-06T11:12:42.578Z,58
2022-12-06T11:13:42.554Z,51
2022-12-06T11:14:42.541Z,56
2022-12-06T11:15:42.541Z,73
2022-12-06T11:16:42.554Z,66
2022-12-06T11:17:42.555Z,59
2022-12-06T11:18:42.541Z,52
2022-12-06T11:19:42.579Z,72
2022-12-06T11:20:42.555Z,65
2022-12-06T11:21:42.555Z,58
2022-12-06T11:22:42.542Z,56
2022-12-06T11:23:42.555Z,57
2022-12-06T11:24:42.555Z,55
2022-12-06T11:25:42.555Z,61
2022-12-06T11:26:42.542Z,69
2022-12-06T11:27:42.556Z,61
2022-12-06T11:28:42.556Z,59
2022-12-06T11:29:42.556Z,59
2022-12-06T11:30:42.543Z,65
2022-12-06T11:31:42.556Z,56
2022-12-06T11:32:42.557Z,62
2022-12-06T11:33:42.543Z,61
2022-12-06T11:34:42.544Z,61
2022-12-06T11:35:42.557Z,65
2022-12-06T11:36:42.557Z,65
2022-12-06T11:37:42.544Z,56
2022-12-06T11:38:42.544Z,61
2022-12-06T11:39:42.557Z,68
2022-12-06T11:40:42.565Z,76
2022-12-06T11:41:42.545Z,77
2022-12-06T11:42:42.558Z,56
2022-12-06T11:43:42.558Z,56
2022-12-06T11:44:42.558Z,64
2022-12-06T11:45:42.545Z,65
2022-12-06T11:46:42.559Z,69
2022-12-06T11:47:42.560Z,61
2022-12-06T11:48:42.559Z,61
2022-12-06T11:49:42.546Z,74
2022-12-06T11:51:07.158Z,79
2022-12-06T11:51:42.559Z,69
2022-12-06T11:52:42.559Z,66
2022-12-06T11:53:42.546Z,73
2022-12-06T11:54:42.559Z,72
2022-12-06T11:55:42.560Z,68
2022-12-06T11:57:42.547Z,87
2022-12-06T11:58:42.560Z,79
2022-12-06T11:59:42.561Z,84
2022-12-06T12:00:42.547Z,79
2022-12-06T12:01:42.547Z,73
2022-12-06T12:02:42.561Z,69
2022-12-06T12:03:42.561Z,72
2022-12-06T12:04:42.548Z,59
2022-12-06T12:05:42.561Z,50
2022-12-06T12:06:42.561Z,68
2022-12-06T12:07:42.561Z,61
2022-12-06T12:09:42.561Z,74
2022-12-06T12:10:42.562Z,73
2022-12-06T12:11:42.562Z,65
2022-12-06T12:12:42.549Z,89
2022-12-06T12:13:42.562Z,77
2022-12-06T12:14:42.563Z,91
2022-12-06T12:15:42.549Z,78
2022-12-06T12:16:42.549Z,79
2022-12-06T12:17:42.563Z,91
2022-12-06T12:18:42.563Z,84
2022-12-06T12:19:42.550Z,82
2022-12-06T12:20:42.550Z,83
2022-12-06T12:21:42.563Z,86
2022-12-06T12:22:42.563Z,84
2022-12-06T12:23:42.550Z,85
2022-12-06T12:24:42.563Z,84
2022-12-06T12:25:42.564Z,84
2022-12-06T12:26:42.563Z,71
2022-12-06T12:27:42.551Z,62
2022-12-06T12:28:42.564Z,69
2022-12-06T12:29:42.565Z,64
2022-12-06T12:30:42.564Z,70
2022-12-06T12:31:42.551Z,69
2022-12-06T12:32:42.564Z,60
2022-12-06T12:33:42.565Z,56
2022-12-06T12:34:42.565Z,48
2022-12-06T12:35:42.552Z,45
2022-12-06T12:36:42.565Z,49
2022-12-06T12:37:42.566Z,61
2022-12-06T12:38:42.552Z,54
2022-12-06T12:39:42.552Z,50
2022-12-06T12:40:42.566Z,48
2022-12-06T12:41:42.566Z,55
2022-12-06T12:42:42.553Z,63
2022-12-06T12:43:42.566Z,57
2022-12-06T12:44:42.566Z,58
2022-12-06T12:45:42.566Z,63
2022-12-06T12:46:42.553Z,61
2022-12-06T12:47:42.566Z,53
2022-12-06T12:48:42.567Z,52
2022-12-06T12:49:42.566Z,62
2022-12-06T12:50:56.685Z,59
2022-12-06T12:51:48.166Z,65
2022-12-06T12:52:42.568Z,60
2022-12-06T12:53:42.567Z,53
2022-12-06T12:54:42.554Z,58
2022-12-06T12:55:42.567Z,57
2022-12-06T12:56:42.568Z,59
2022-12-06T12:57:42.569Z,56
2022-12-06T12:58:42.555Z,54
2022-12-06T12:59:42.568Z,57
2022-12-06T13:00:42.569Z,53
2022-12-06T13:01:42.555Z,50
2022-12-06T13:02:42.555Z,60
2022-12-06T13:03:42.568Z,48
2022-12-06T13:04:42.593Z,47
2022-12-06T13:05:42.556Z,49
2022-12-06T13:06:42.569Z,39
2022-12-06T13:07:42.569Z,39
2022-12-06T13:08:42.569Z,49
2022-12-06T13:09:42.556Z,61
2022-12-06T13:10:42.570Z,58
2022-12-06T13:11:42.620Z,55
2022-12-06T13:12:42.569Z,54
2022-12-06T13:13:42.557Z,55
2022-12-06T13:14:42.570Z,55
2022-12-06T13:15:42.571Z,62
2022-12-06T13:16:42.570Z,52
2022-12-06T13:17:42.557Z,51
2022-12-06T13:18:42.570Z,50
2022-12-06T13:19:42.571Z,47
2022-12-06T13:20:42.558Z,52
2022-12-06T13:21:42.558Z,50
2022-12-06T13:22:42.571Z,56
2022-12-06T13:23:42.572Z,53
2022-12-06T13:24:42.558Z,58
2022-12-06T13:25:42.558Z,62
2022-12-06T13:26:42.571Z,55
2022-12-06T13:27:42.572Z,51
2022-12-06T13:28:42.559Z,57
2022-12-06T13:29:42.572Z,56
2022-12-06T13:30:42.572Z,54
2022-12-06T13:31:42.572Z,47
2022-12-06T13:32:42.559Z,44
2022-12-06T13:33:42.572Z,53
2022-12-06T13:34:42.573Z,45
2022-12-06T13:35:42.572Z,46
2022-12-06T13:36:42.560Z,44
2022-12-06T13:37:42.573Z,53
2022-12-06T13:38:42.573Z,44
2022-12-06T13:39:42.576Z,47
2022-12-06T13:40:42.560Z,42
2022-12-06T13:41:42.573Z,48
2022-12-06T13:42:42.574Z,43
2022-12-06T13:43:42.561Z,40
2022-12-06T13:44:42.561Z,41
2022-12-06T13:45:42.574Z,53
2022-12-06T13:46:42.598Z,49
2022-12-06T13:47:42.561Z,37
2022-12-06T13:48:42.574Z,47
2022-12-06T13:49:42.574Z,41
2022-12-06T13:50:42.574Z,44
2022-12-06T13:51:42.562Z,41
2022-12-06T13:52:42.575Z,36
2022-12-06T13:53:42.575Z,43
2022-12-06T13:54:42.575Z,42
2022-12-06T13:55:42.562Z,39
2022-12-06T13:56:42.575Z,38
2022-12-06T13:57:42.576Z,37
2022-12-06T13:58:42.575Z,37
2022-12-06T13:59:42.563Z,45
2022-12-06T14:00:42.600Z,47
2022-12-06T14:01:42.576Z,50
2022-12-06T14:02:42.563Z,47
2022-12-06T14:03:42.563Z,43
2022-12-06T14:04:42.576Z,33
2022-12-06T14:05:42.577Z,41
2022-12-06T14:06:42.563Z,30
2022-12-06T14:07:42.564Z,39
2022-12-06T14:08:42.577Z,41
2022-12-06T14:09:42.577Z,36
2022-12-06T14:11:50.522Z,42
2022-12-06T14:13:42.577Z,40
2022-12-06T14:14:42.565Z,52
2022-12-06T14:15:42.578Z,51
2022-12-06T14:16:42.578Z,50
2022-12-06T14:17:42.578Z,59
2022-12-06T14:18:42.565Z,54
2022-12-06T14:19:42.578Z,71
2022-12-06T14:20:42.579Z,67
2022-12-06T14:21:42.578Z,71
2022-12-06T14:22:42.566Z,66
2022-12-06T14:23:42.579Z,70
2022-12-06T14:24:42.579Z,58
2022-12-06T14:25:42.566Z,49
2022-12-06T14:26:42.566Z,45
2022-12-06T14:27:42.579Z,49
2022-12-06T14:28:42.580Z,42
2022-12-06T14:29:42.566Z,45
2022-12-06T14:30:42.567Z,47
2022-12-06T14:31:42.580Z,46
2022-12-06T14:32:42.588Z,50
2022-12-06T14:33:42.567Z,46
2022-12-06T14:35:42.580Z,41
2022-12-06T14:37:42.567Z,38
2022-12-06T14:38:42.581Z,37